createdAt,value
2019-05-25T00:08:03.782Z,12.3
2019-05-25T00:24:44.175Z,12.3
2019-05-25T00:41:24.493Z,12.0
2019-05-25T00:58:04.827Z,12.0
2019-05-25T01:14:45.097Z,12.0
2019-05-25T01:31:24.750Z,11.7
2019-05-25T01:48:04.316Z,11.7
2019-05-25T02:04:43.847Z,11.7
2019-05-25T02:21:23.258Z,11.7
2019-05-25T02:38:02.667Z,11.4
2019-05-25T02:54:41.932Z,11.0
2019-05-25T03:11:21.093Z,11.4
2019-05-25T03:28:00.266Z,11.4
2019-05-25T03:44:39.649Z,11.4
2019-05-25T04:01:19.243Z,11.7
2019-05-25T04:17:59.282Z,12.0
2019-05-25T04:34:38.723Z,12.3
2019-05-25T04:51:18.757Z,12.3
2019-05-25T05:07:59.454Z,12.6
2019-05-25T05:24:40.461Z,12.6
2019-05-25T05:41:21.218Z,13.0
2019-05-25T05:58:02.342Z,13.0
2019-05-25T06:14:43.403Z,13.3
2019-05-25T06:31:24.578Z,13.6
2019-05-25T06:48:06.230Z,14.2
2019-05-25T06:58:07.445Z,14.6
2019-05-25T07:14:49.525Z,14.6
2019-05-25T07:31:31.591Z,14.6
2019-05-25T07:44:53.623Z,15.2
2019-05-25T08:01:36.485Z,15.5
2019-05-25T08:14:58.989Z,16.2
2019-05-25T08:31:43.029Z,16.2
2019-05-25T08:48:26.075Z,16.8
2019-05-25T09:05:10.239Z,16.8
2019-05-25T09:22:02.496Z,17.4
2019-05-25T09:38:43.055Z,17.1
2019-05-25T09:55:23.659Z,17.1
2019-05-25T10:02:05.867Z,17.8
2019-05-25T10:15:29.805Z,18.7
2019-05-25T10:32:15.566Z,18.4
2019-05-25T10:49:01.228Z,18.7
2019-05-25T11:05:47.127Z,18.7
2019-05-25T11:22:33.067Z,18.7
2019-05-25T11:39:19.096Z,18.7
2019-05-25T11:56:05.198Z,19.0
2019-05-25T12:12:51.374Z,19.0
2019-05-25T12:29:37.529Z,19.0
2019-05-25T12:46:23.659Z,19.0
2019-05-25T13:03:12.818Z,19.0
2019-05-25T13:09:52.061Z,19.7
2019-05-25T13:26:39.056Z,20.0
2019-05-25T13:33:21.727Z,19.4
2019-05-25T13:50:08.256Z,20.0
2019-05-25T14:06:55.356Z,20.3
2019-05-25T14:23:42.430Z,20.3
2019-05-25T14:40:29.938Z,20.6
2019-05-25T14:50:34.391Z,20.0
2019-05-25T15:07:21.125Z,19.7
2019-05-25T15:24:08.144Z,20.3
2019-05-25T15:40:55.245Z,20.0
2019-05-25T15:57:41.983Z,20.3
2019-05-25T16:04:24.844Z,21.0
2019-05-25T16:14:29.797Z,21.3
2019-05-25T16:31:17.660Z,21.3
2019-05-25T16:34:39.303Z,21.9
2019-05-25T16:44:44.678Z,22.6
2019-05-25T17:01:47.808Z,22.9
2019-05-25T17:18:23.528Z,21.6
2019-05-25T17:21:45.816Z,21.0
2019-05-25T17:25:06.725Z,20.3
2019-05-25T17:35:10.945Z,19.7
2019-05-25T17:51:58.886Z,19.7
2019-05-25T18:08:44.175Z,19.4
2019-05-25T18:15:26.651Z,18.7
2019-05-25T18:25:29.866Z,18.1
2019-05-25T18:42:14.901Z,17.8
2019-05-25T18:58:59.531Z,17.4
2019-05-25T19:15:44.027Z,17.1
2019-05-25T19:32:27.943Z,16.8
2019-05-25T19:49:11.729Z,16.2
2019-05-25T20:05:55.487Z,15.8
2019-05-25T20:22:38.399Z,15.5
2019-05-25T20:39:21.387Z,15.2
2019-05-25T20:56:04.286Z,14.9
2019-05-25T21:12:46.580Z,14.9
2019-05-25T21:29:28.887Z,14.6
2019-05-25T21:46:10.996Z,14.2
2019-05-25T22:02:52.829Z,13.9
2019-05-25T22:19:34.537Z,13.9
2019-05-25T22:36:16.105Z,13.6
2019-05-25T22:52:57.586Z,13.3
2019-05-25T23:09:38.554Z,13.0
2019-05-25T23:26:19.648Z,13.0
2019-05-25T23:43:00.458Z,13.0
2019-05-25T23:59:41.363Z,13.0
